Time;durP1;ratioP1;P1;durP2;ratioP2;P2;SDS_P1;SDS_P2;PMS_P1;PMS_P2;Temp;Humidity;BMP_temperature;BMP_pressure;BME280_temperature;BME280_humidity;BME280_pressure;Samples;Min_cycle;Max_cycle;Signal;HPM_P1;HPM_P2
2022/01/23 00:00:55;;;;;;;48.43;11.23;;;;;;;;;;5021959;28;20207;-66
2022/01/23 00:03:21;;;;;;;92.97;16.93;;;;;;;;;;5022189;28;20199;-67
2022/01/23 00:05:48;;;;;;;187.77;32.77;;;;;;;;;;5013237;28;20279;-66
2022/01/23 00:08:19;;;;;;;56.77;13.20;;;;;;;;;;5016054;28;20224;-66
2022/01/23 00:10:45;;;;;;;56.37;12.07;;;;;;;;;;5018449;28;20194;-67
2022/01/23 00:13:27;;;;;;;62.97;12.97;;;;;;;;;;5013683;28;20172;-66
2022/01/23 00:18:38;;;;;;;58.27;12.00;;;;;;;;;;5015210;28;20311;-66
2022/01/23 00:21:04;;;;;;;103.93;18.23;;;;;;;;;;5016526;28;20176;-66
2022/01/23 00:31:30;;;;;;;84.17;16.37;;;;;;;;;;5014524;28;20649;-66
2022/01/23 00:33:56;;;;;;;57.70;12.50;;;;;;;;;;5014665;28;21610;-66
2022/01/23 00:36:22;;;;;;;115.07;19.70;;;;;;;;;;5012710;28;20764;-66
2022/01/23 00:38:48;;;;;;;61.40;13.60;;;;;;;;;;5014950;28;20337;-66
2022/01/23 00:41:14;;;;;;;55.60;13.00;;;;;;;;;;5016040;28;20304;-66
2022/01/23 00:43:43;;;;;;;74.43;15.00;;;;;;;;;;5011881;28;20275;-66
2022/01/23 00:48:38;;;;;;;68.77;13.60;;;;;;;;;;5014955;28;20204;-65
2022/01/23 00:51:04;;;;;;;68.43;14.47;;;;;;;;;;5020658;28;20188;-66
2022/01/23 00:53:30;;;;;;;85.07;16.57;;;;;;;;;;5022145;28;20185;-66
2022/01/23 00:55:56;;;;;;;59.20;13.40;;;;;;;;;;5011259;28;20216;-66
2022/01/23 00:58:22;;;;;;;84.83;17.00;;;;;;;;;;5016977;28;20625;-66
2022/01/23 01:00:47;;;;;;;39.77;10.07;;;;;;;;;;5015427;28;20184;-64
2022/01/23 01:03:13;;;;;;;105.63;18.37;;;;;;;;;;5019250;28;20184;-64
2022/01/23 01:05:39;;;;;;;88.90;16.83;;;;;;;;;;5013161;28;20196;-64
2022/01/23 01:08:06;;;;;;;65.80;14.10;;;;;;;;;;5012844;28;22144;-64
2022/01/23 01:10:39;;;;;;;61.53;13.17;;;;;;;;;;5016969;28;20199;-64
2022/01/23 01:13:09;;;;;;;65.93;13.73;;;;;;;;;;5022906;28;20195;-66
2022/01/23 01:15:52;;;;;;;67.53;14.37;;;;;;;;;;5017170;28;20218;-66
2022/01/23 01:32:16;;;;;;;67.87;14.23;;;;;;;;;;5011807;28;20853;-66
2022/01/23 01:34:49;;;;;;;86.03;16.00;;;;;;;;;;5014234;28;20271;-66
2022/01/23 01:37:15;;;;;;;90.17;17.37;;;;;;;;;;5013063;28;20218;-65
2022/01/23 01:39:41;;;;;;;44.10;10.57;;;;;;;;;;5014466;28;20378;-66
2022/01/23 01:42:07;;;;;;;51.47;11.83;;;;;;;;;;5001081;28;20279;-66
2022/01/23 01:44:33;;;;;;;52.87;11.50;;;;;;;;;;5023288;28;20189;-66
2022/01/23 01:46:59;;;;;;;63.20;12.90;;;;;;;;;;5013579;28;20239;-66
2022/01/23 01:49:28;;;;;;;96.00;18.20;;;;;;;;;;5015724;28;20268;-66
2022/01/23 01:51:55;;;;;;;108.33;19.97;;;;;;;;;;5013209;28;20184;-65
2022/01/23 01:54:24;;;;;;;134.80;23.67;;;;;;;;;;5011980;28;20954;-66
2022/01/23 01:56:52;;;;;;;100.87;19.03;;;;;;;;;;5005146;28;20291;-66
2022/01/23 01:59:45;;;;;;;47.90;12.03;;;;;;;;;;5017442;28;20185;-66
2022/01/23 02:10:03;;;;;;;125.93;21.87;;;;;;;;;;5010718;28;20207;-66
2022/01/23 02:15:43;;;;;;;83.97;16.77;;;;;;;;;;5019165;28;20638;-65
2022/01/23 02:51:34;;;;;;;67.23;14.27;;;;;;;;;;5008976;28;20601;-68
2022/01/23 02:56:46;;;;;;;105.83;19.53;;;;;;;;;;5011728;28;20668;-66
2022/01/23 02:59:36;;;;;;;85.30;17.00;;;;;;;;;;5014209;28;20309;-66
2022/01/23 03:02:11;;;;;;;124.60;22.87;;;;;;;;;;5016819;28;20192;-66
2022/01/23 03:04:40;;;;;;;110.63;19.80;;;;;;;;;;5007661;28;20206;-66
2022/01/23 03:10:00;;;;;;;193.27;31.80;;;;;;;;;;5010473;28;20275;-66
2022/01/23 03:13:01;;;;;;;86.80;17.07;;;;;;;;;;5018027;28;20222;-66
2022/01/23 03:29:04;;;;;;;150.53;25.43;;;;;;;;;;5011416;28;20246;-66
2022/01/23 03:31:33;;;;;;;78.53;15.93;;;;;;;;;;5016313;28;20602;-66
2022/01/23 03:34:00;;;;;;;167.23;28.00;;;;;;;;;;5008677;28;20272;-66
2022/01/23 03:36:26;;;;;;;102.23;18.63;;;;;;;;;;5010768;28;20212;-66
2022/01/23 03:38:52;;;;;;;78.47;15.97;;;;;;;;;;5016123;28;20669;-66
2022/01/23 03:41:18;;;;;;;136.63;23.90;;;;;;;;;;5009173;28;20192;-66
2022/01/23 03:43:44;;;;;;;121.33;21.77;;;;;;;;;;5008168;28;20275;-66
2022/01/23 03:51:10;;;;;;;76.13;10.43;;;;;;;;;;5013008;28;20743;-68
2022/01/23 03:53:36;;;;;;;54.93;7.87;;;;;;;;;;5021944;28;20200;-67
2022/01/23 03:56:02;;;;;;;48.30;6.87;;;;;;;;;;4998139;28;20216;-68
2022/01/23 03:58:28;;;;;;;90.20;12.10;;;;;;;;;;5015146;28;20254;-68
2022/01/23 04:00:54;;;;;;;85.73;11.93;;;;;;;;;;4992616;28;20188;-68
2022/01/23 04:03:20;;;;;;;98.60;13.63;;;;;;;;;;5010311;28;20196;-68
2022/01/23 04:05:47;;;;;;;76.03;10.60;;;;;;;;;;5001958;28;20562;-68
2022/01/23 04:08:15;;;;;;;65.77;9.07;;;;;;;;;;5000769;28;20212;-68
2022/01/23 04:10:41;;;;;;;149.60;19.93;;;;;;;;;;5008227;28;20180;-68
2022/01/23 04:13:23;;;;;;;72.80;10.17;;;;;;;;;;5018367;28;21070;-68
2022/01/23 04:16:04;;;;;;;63.87;9.07;;;;;;;;;;5014894;28;20290;-68
2022/01/23 04:32:23;;;;;;;68.43;9.43;;;;;;;;;;5015768;28;20695;-68
2022/01/23 04:45:37;;;;;;;55.80;7.97;;;;;;;;;;5016214;28;20250;-67
2022/01/23 05:01:51;;;;;;;57.73;8.50;;;;;;;;;;5021645;28;20249;-67
2022/01/23 05:04:22;;;;;;;147.33;19.43;;;;;;;;;;5013388;28;20259;-68
2022/01/23 05:06:59;;;;;;;83.07;11.37;;;;;;;;;;5003070;28;20692;-68
2022/01/23 05:09:26;;;;;;;59.30;8.43;;;;;;;;;;5020825;28;20168;-68
2022/01/23 05:12:00;;;;;;;71.77;10.33;;;;;;;;;;5008708;28;20205;-68
2022/01/23 05:14:35;;;;;;;46.70;6.93;;;;;;;;;;5018961;28;20234;-68
2022/01/23 05:17:02;;;;;;;68.23;9.30;;;;;;;;;;5021406;28;20196;-68
2022/01/23 05:19:29;;;;;;;68.20;9.30;;;;;;;;;;5012134;28;20180;-68
2022/01/23 05:24:26;;;;;;;75.73;10.27;;;;;;;;;;5023755;28;20713;-67
2022/01/23 05:26:58;;;;;;;74.17;10.13;;;;;;;;;;5016642;28;20706;-68
2022/01/23 05:29:24;;;;;;;60.30;8.57;;;;;;;;;;5022048;28;20184;-68
2022/01/23 05:31:51;;;;;;;44.57;6.67;;;;;;;;;;5019394;28;20199;-68
2022/01/23 05:34:17;;;;;;;51.07;7.20;;;;;;;;;;5020834;28;20268;-68
2022/01/23 05:36:43;;;;;;;109.57;14.43;;;;;;;;;;4997228;28;20254;-68
2022/01/23 05:39:09;;;;;;;59.67;8.30;;;;;;;;;;5016887;28;20181;-69
2022/01/23 05:41:35;;;;;;;49.63;7.00;;;;;;;;;;5016176;28;20191;-68
2022/01/23 05:44:02;;;;;;;86.17;11.50;;;;;;;;;;5022616;28;20196;-68
2022/01/23 05:46:28;;;;;;;71.83;9.80;;;;;;;;;;4996443;28;20188;-69
2022/01/23 05:48:54;;;;;;;95.73;12.93;;;;;;;;;;5018373;28;20196;-68
2022/01/23 05:51:20;;;;;;;34.10;5.23;;;;;;;;;;5008425;28;20188;-68
2022/01/23 05:53:47;;;;;;;106.80;14.30;;;;;;;;;;5000495;28;20238;-68
2022/01/23 05:56:12;;;;;;;93.53;12.60;;;;;;;;;;5013883;28;20217;-68
2022/01/23 05:58:38;;;;;;;61.63;8.67;;;;;;;;;;5020417;28;20215;-68
2022/01/23 06:01:05;;;;;;;57.07;7.87;;;;;;;;;;5004905;28;20536;-68
2022/01/23 06:03:31;;;;;;;99.30;13.43;;;;;;;;;;5019006;28;21102;-68
2022/01/23 06:05:57;;;;;;;49.17;7.03;;;;;;;;;;4999338;28;20188;-68
2022/01/23 06:08:25;;;;;;;52.83;7.43;;;;;;;;;;5016620;28;20212;-68
2022/01/23 06:10:55;;;;;;;82.60;11.10;;;;;;;;;;5013623;28;20185;-68
2022/01/23 06:13:22;;;;;;;120.50;15.97;;;;;;;;;;5018032;28;20290;-68
2022/01/23 06:15:48;;;;;;;69.10;9.47;;;;;;;;;;5018270;28;20618;-68
2022/01/23 06:18:14;;;;;;;76.37;10.37;;;;;;;;;;5011516;28;20232;-68
2022/01/23 06:20:39;;;;;;;63.40;8.80;;;;;;;;;;5011981;28;20188;-68
2022/01/23 06:23:05;;;;;;;80.27;10.87;;;;;;;;;;5000588;28;20263;-68
2022/01/23 06:25:34;;;;;;;58.97;8.43;;;;;;;;;;5016589;28;20211;-68
2022/01/23 06:28:00;;;;;;;64.50;9.10;;;;;;;;;;5012059;28;20205;-68
2022/01/23 06:30:26;;;;;;;39.83;5.90;;;;;;;;;;5016025;28;20195;-68
2022/01/23 06:32:52;;;;;;;38.90;5.70;;;;;;;;;;5028512;28;20268;-68
2022/01/23 06:35:18;;;;;;;59.97;8.60;;;;;;;;;;5015735;28;20630;-68
2022/01/23 06:37:44;;;;;;;70.00;9.70;;;;;;;;;;5010621;28;20617;-68
2022/01/23 06:40:10;;;;;;;116.40;15.27;;;;;;;;;;5013639;28;20184;-68
2022/01/23 06:42:36;;;;;;;89.10;12.23;;;;;;;;;;5011732;28;20195;-68
2022/01/23 06:45:02;;;;;;;98.33;13.30;;;;;;;;;;4998500;28;20188;-68
2022/01/23 06:47:28;;;;;;;85.70;11.77;;;;;;;;;;5010534;28;20221;-68
2022/01/23 06:49:54;;;;;;;75.47;10.30;;;;;;;;;;5020602;28;20677;-68
2022/01/23 06:52:20;;;;;;;103.03;13.67;;;;;;;;;;5008990;28;20220;-68
2022/01/23 06:54:46;;;;;;;86.60;11.67;;;;;;;;;;5011383;28;20574;-68
2022/01/23 06:57:12;;;;;;;65.90;8.93;;;;;;;;;;5015251;28;20204;-68
2022/01/23 06:59:38;;;;;;;59.27;8.30;;;;;;;;;;5001738;28;20188;-68
2022/01/23 07:02:04;;;;;;;69.20;9.77;;;;;;;;;;5019882;28;20187;-69
2022/01/23 07:04:30;;;;;;;67.67;9.17;;;;;;;;;;5015997;28;20206;-68
2022/01/23 07:06:56;;;;;;;29.80;4.50;;;;;;;;;;5012681;28;20215;-68
2022/01/23 07:09:23;;;;;;;131.23;17.40;;;;;;;;;;4997975;28;20208;-68
2022/01/23 07:11:49;;;;;;;80.10;11.03;;;;;;;;;;4995897;28;20203;-68
2022/01/23 07:14:15;;;;;;;63.73;9.10;;;;;;;;;;5017819;28;20681;-68
2022/01/23 07:16:41;;;;;;;63.30;8.80;;;;;;;;;;5013269;28;20231;-65
2022/01/23 07:19:07;;;;;;;42.90;6.20;;;;;;;;;;4999635;28;20204;-67
2022/01/23 07:21:33;;;;;;;19.07;3.23;;;;;;;;;;5022632;28;20184;-67
2022/01/23 07:23:59;;;;;;;80.57;11.20;;;;;;;;;;5022913;28;20782;-66
2022/01/23 07:26:26;;;;;;;57.60;8.30;;;;;;;;;;5014049;28;20188;-67
2022/01/23 07:28:55;;;;;;;46.50;6.90;;;;;;;;;;5018714;28;20180;-67
2022/01/23 07:31:44;;;;;;;43.30;6.40;;;;;;;;;;5000717;28;20185;-67
2022/01/23 07:34:08;;;;;;;112.43;15.27;;;;;;;;;;5000907;28;20644;-67
2022/01/23 07:36:34;;;;;;;81.43;11.03;;;;;;;;;;5013971;28;20216;-66
2022/01/23 07:39:00;;;;;;;87.23;11.93;;;;;;;;;;5016923;28;20184;-66
2022/01/23 07:41:26;;;;;;;43.63;6.33;;;;;;;;;;4992445;28;20187;-67
2022/01/23 07:43:52;;;;;;;69.20;9.70;;;;;;;;;;5017408;28;20185;-67
2022/01/23 07:46:19;;;;;;;61.23;8.53;;;;;;;;;;5018001;28;20185;-67
2022/01/23 07:48:45;;;;;;;93.67;12.73;;;;;;;;;;5006045;28;20196;-68
2022/01/23 07:51:11;;;;;;;63.83;8.43;;;;;;;;;;5018388;28;21318;-66
2022/01/23 07:53:37;;;;;;;57.03;7.73;;;;;;;;;;5016639;28;20194;-67
2022/01/23 07:56:03;;;;;;;80.17;10.97;;;;;;;;;;5013338;28;20215;-67
2022/01/23 07:58:29;;;;;;;67.07;9.47;;;;;;;;;;5016646;28;20196;-67
2022/01/23 08:00:55;;;;;;;44.50;6.63;;;;;;;;;;5007136;28;20462;-67
2022/01/23 08:03:21;;;;;;;102.13;13.77;;;;;;;;;;5019428;28;20184;-67
2022/01/23 08:05:47;;;;;;;47.97;6.93;;;;;;;;;;5017416;28;20180;-67
2022/01/23 08:08:13;;;;;;;103.50;13.77;;;;;;;;;;5019337;28;20597;-67
2022/01/23 08:10:39;;;;;;;92.37;12.77;;;;;;;;;;5021298;28;20181;-68
2022/01/23 08:13:05;;;;;;;52.90;7.70;;;;;;;;;;5016261;28;20189;-67
2022/01/23 08:15:34;;;;;;;53.67;7.63;;;;;;;;;;5022580;28;20218;-65
2022/01/23 08:18:01;;;;;;;52.80;7.80;;;;;;;;;;5014961;28;20208;-67
2022/01/23 08:20:27;;;;;;;91.30;12.37;;;;;;;;;;5021217;28;20185;-68
2022/01/23 08:22:53;;;;;;;32.27;5.03;;;;;;;;;;5022773;28;20259;-68
2022/01/23 08:25:19;;;;;;;78.67;10.93;;;;;;;;;;5025074;28;20267;-68
2022/01/23 08:27:45;;;;;;;61.33;8.83;;;;;;;;;;5026964;28;20685;-68
2022/01/23 08:30:13;;;;;;;42.03;6.23;;;;;;;;;;5023954;28;20279;-68
2022/01/23 08:32:39;;;;;;;34.20;5.13;;;;;;;;;;5012299;28;20612;-68
2022/01/23 08:35:05;;;;;;;35.90;5.30;;;;;;;;;;5018508;28;20214;-68
2022/01/23 08:37:31;;;;;;;57.47;8.07;;;;;;;;;;5007983;28;20197;-68
2022/01/23 08:39:57;;;;;;;49.63;7.13;;;;;;;;;;5027514;28;20233;-67
2022/01/23 08:42:23;;;;;;;25.33;3.87;;;;;;;;;;5021857;28;20685;-67
2022/01/23 08:44:50;;;;;;;80.83;10.63;;;;;;;;;;5022156;28;20188;-67
2022/01/23 08:47:17;;;;;;;123.23;16.37;;;;;;;;;;5000994;28;20240;-68
2022/01/23 08:49:48;;;;;;;86.53;11.87;;;;;;;;;;4986526;28;20780;-66
2022/01/23 08:52:19;;;;;;;59.00;8.27;;;;;;;;;;5020032;28;20303;-66
2022/01/23 08:54:45;;;;;;;90.20;12.07;;;;;;;;;;5018552;28;20251;-68
2022/01/23 08:57:12;;;;;;;65.00;8.93;;;;;;;;;;4997888;28;20197;-73
2022/01/23 08:59:38;;;;;;;48.57;6.87;;;;;;;;;;5020289;28;20181;-69
2022/01/23 09:02:04;;;;;;;58.53;8.37;;;;;;;;;;5021774;28;20311;-68
2022/01/23 09:04:30;;;;;;;87.63;11.73;;;;;;;;;;5019455;28;20191;-68
2022/01/23 09:06:56;;;;;;;82.63;11.33;;;;;;;;;;5019131;28;20573;-68
2022/01/23 09:09:24;;;;;;;80.27;10.90;;;;;;;;;;5021263;28;20201;-67
2022/01/23 09:12:01;;;;;;;43.17;6.27;;;;;;;;;;5000674;28;20192;-67
2022/01/23 09:14:27;;;;;;;133.03;17.27;;;;;;;;;;4990852;28;20192;-65
2022/01/23 09:16:54;;;;;;;86.53;11.70;;;;;;;;;;5018413;28;20284;-68
2022/01/23 09:19:21;;;;;;;61.13;8.70;;;;;;;;;;4999077;28;20539;-68
2022/01/23 09:21:51;;;;;;;114.67;14.97;;;;;;;;;;5015048;28;20195;-61
2022/01/23 09:24:18;;;;;;;56.43;7.63;;;;;;;;;;5023959;28;20637;-61
2022/01/23 09:26:51;;;;;;;60.20;8.70;;;;;;;;;;5016286;28;20212;-68
2022/01/23 09:29:24;;;;;;;43.67;6.77;;;;;;;;;;5009510;28;20180;-68
2022/01/23 09:31:50;;;;;;;66.67;10.07;;;;;;;;;;5017132;28;20697;-68
2022/01/23 09:34:20;;;;;;;90.07;13.00;;;;;;;;;;5006790;28;20558;-67
2022/01/23 09:36:47;;;;;;;93.77;13.97;;;;;;;;;;5014878;28;20585;-68
2022/01/23 09:39:15;;;;;;;91.90;13.40;;;;;;;;;;5023394;28;20195;-69
2022/01/23 09:41:51;;;;;;;63.67;9.80;;;;;;;;;;5017624;28;20226;-64
2022/01/23 09:44:19;;;;;;;90.23;13.37;;;;;;;;;;5020554;28;20609;-64
2022/01/23 09:49:21;;;;;;;95.03;18.63;;;;;;;;;;5035967;28;20549;-67
2022/01/23 09:51:49;;;;;;;173.33;29.33;;;;;;;;;;5017851;28;20633;-66
2022/01/23 09:54:16;;;;;;;86.07;17.73;;;;;;;;;;5020770;28;20597;-67
2022/01/23 09:56:43;;;;;;;162.83;27.63;;;;;;;;;;5023211;28;20617;-66
2022/01/23 09:59:10;;;;;;;100.53;19.23;;;;;;;;;;5019926;28;20668;-69
2022/01/23 10:01:37;;;;;;;90.37;18.43;;;;;;;;;;5030382;28;20362;-70
2022/01/23 10:04:03;;;;;;;172.77;28.80;;;;;;;;;;5013966;28;20281;-73
2022/01/23 10:06:29;;;;;;;96.27;18.70;;;;;;;;;;5020824;28;20554;-73
2022/01/23 10:08:55;;;;;;;141.70;24.07;;;;;;;;;;5018855;28;20207;-73
2022/01/23 10:11:21;;;;;;;86.20;17.57;;;;;;;;;;5021429;28;20595;-72
2022/01/23 10:13:50;;;;;;;114.67;20.40;;;;;;;;;;5020217;28;20238;-74
2022/01/23 10:16:16;;;;;;;137.10;26.30;;;;;;;;;;5019413;28;20250;-71
2022/01/23 10:18:42;;;;;;;138.87;25.60;;;;;;;;;;5017739;28;20703;-70
2022/01/23 10:21:08;;;;;;;123.10;22.47;;;;;;;;;;5025419;28;20210;-69
2022/01/23 10:23:34;;;;;;;99.43;19.23;;;;;;;;;;5022818;28;20622;-69
2022/01/23 10:26:02;;;;;;;98.60;18.03;;;;;;;;;;5020211;28;20184;-72
2022/01/23 10:28:30;;;;;;;107.23;18.87;;;;;;;;;;5023960;28;20204;-66
2022/01/23 10:30:58;;;;;;;78.47;15.27;;;;;;;;;;5021575;28;20250;-69
2022/01/23 10:33:34;;;;;;;95.70;19.00;;;;;;;;;;5022683;28;20883;-70
2022/01/23 10:36:02;;;;;;;89.00;18.20;;;;;;;;;;5019458;28;20179;-70
2022/01/23 10:38:33;;;;;;;75.33;15.50;;;;;;;;;;5023331;28;20215;-69
2022/01/23 10:41:43;;;;;;;115.57;20.67;;;;;;;;;;5017509;28;20183;-70
2022/01/23 10:49:55;;;;;;;95.17;18.43;;;;;;;;;;5022709;28;20189;-70
2022/01/23 10:52:32;;;;;;;81.53;14.77;;;;;;;;;;5022876;28;20299;-71
2022/01/23 10:54:58;;;;;;;114.77;21.47;;;;;;;;;;5013688;28;20270;-70
2022/01/23 10:57:24;;;;;;;93.80;18.27;;;;;;;;;;5023930;28;20298;-71
2022/01/23 10:59:51;;;;;;;74.70;15.77;;;;;;;;;;5018586;28;20264;-70
2022/01/23 11:02:26;;;;;;;121.07;21.20;;;;;;;;;;5008768;28;20222;-71
2022/01/23 11:04:57;;;;;;;124.50;22.70;;;;;;;;;;4995542;28;20199;-71
2022/01/23 11:07:24;;;;;;;97.30;18.70;;;;;;;;;;4997761;28;20212;-71
2022/01/23 11:09:55;;;;;;;176.80;29.07;;;;;;;;;;5004986;28;20185;-71
2022/01/23 11:12:31;;;;;;;110.93;19.63;;;;;;;;;;5007110;28;20578;-71
2022/01/23 11:17:51;;;;;;;93.07;17.67;;;;;;;;;;4998696;28;20213;-71
2022/01/23 11:20:28;;;;;;;80.63;16.07;;;;;;;;;;5000249;28;20649;-71
2022/01/23 11:23:13;;;;;;;142.30;23.13;;;;;;;;;;5003162;28;20188;-71
2022/01/23 11:25:40;;;;;;;124.00;21.60;;;;;;;;;;4994316;28;20192;-71
2022/01/23 11:28:06;;;;;;;97.33;18.63;;;;;;;;;;5004015;28;20298;-72
2022/01/23 11:30:38;;;;;;;95.10;18.60;;;;;;;;;;5001909;28;20310;-66
2022/01/23 11:33:04;;;;;;;112.57;19.57;;;;;;;;;;5000245;28;20197;-67
2022/01/23 11:35:31;;;;;;;100.93;18.63;;;;;;;;;;5006366;28;20184;-66
2022/01/23 11:37:57;;;;;;;122.40;21.70;;;;;;;;;;5003895;28;20859;-66
2022/01/23 11:40:35;;;;;;;142.27;24.57;;;;;;;;;;5000151;28;20245;-66
2022/01/23 11:53:57;;;;;;;61.67;13.63;;;;;;;;;;5006184;28;20201;-67
2022/01/23 11:56:30;;;;;;;102.40;19.50;;;;;;;;;;4996935;28;20185;-68
2022/01/23 11:59:18;;;;;;;103.20;19.33;;;;;;;;;;4987674;28;20235;-68
2022/01/23 12:01:45;;;;;;;109.17;19.23;;;;;;;;;;5006284;28;20177;-69
2022/01/23 12:04:22;;;;;;;90.53;17.90;;;;;;;;;;5004170;28;20263;-69
2022/01/23 12:07:06;;;;;;;111.53;20.10;;;;;;;;;;4998845;28;20183;-69
2022/01/23 12:09:32;;;;;;;134.47;23.63;;;;;;;;;;5007279;28;20705;-70
2022/01/23 12:12:35;;;;;;;98.70;18.50;;;;;;;;;;5002262;28;20188;-69
2022/01/23 12:18:18;;;;;;;77.73;15.80;;;;;;;;;;5007558;28;20234;-70
2022/01/23 12:20:45;;;;;;;73.27;14.97;;;;;;;;;;5012649;28;20184;-69
2022/01/23 12:23:11;;;;;;;62.73;13.53;;;;;;;;;;5011863;28;20192;-69
2022/01/23 12:25:42;;;;;;;125.40;21.03;;;;;;;;;;5008411;28;20189;-68
2022/01/23 12:28:10;;;;;;;130.63;23.33;;;;;;;;;;5006989;28;20213;-69
2022/01/23 12:30:36;;;;;;;69.33;15.00;;;;;;;;;;5005287;28;20188;-69
2022/01/23 12:33:11;;;;;;;82.00;15.93;;;;;;;;;;5007674;28;20233;-69
2022/01/23 12:35:41;;;;;;;71.53;14.80;;;;;;;;;;5004112;28;20203;-70
2022/01/23 12:38:10;;;;;;;89.67;17.60;;;;;;;;;;5007943;28;20208;-66
2022/01/23 12:40:39;;;;;;;97.00;18.23;;;;;;;;;;5003777;28;20176;-66
2022/01/23 12:43:08;;;;;;;139.80;23.90;;;;;;;;;;4998118;28;20298;-66
2022/01/23 12:45:44;;;;;;;85.60;17.10;;;;;;;;;;5006681;28;20181;-66
2022/01/23 12:48:37;;;;;;;66.07;13.83;;;;;;;;;;5011581;28;20232;-66
2022/01/23 12:51:10;;;;;;;112.70;20.33;;;;;;;;;;5004328;28;20191;-69
2022/01/23 12:53:59;;;;;;;86.03;15.77;;;;;;;;;;5003496;28;20201;-68
2022/01/23 12:56:28;;;;;;;95.50;17.87;;;;;;;;;;5006204;28;20876;-68
2022/01/23 12:59:04;;;;;;;85.43;16.37;;;;;;;;;;5006796;28;20666;-69
2022/01/23 13:01:31;;;;;;;135.97;22.13;;;;;;;;;;5006613;28;20203;-68
2022/01/23 13:03:58;;;;;;;178.83;28.10;;;;;;;;;;5003946;28;20192;-68
2022/01/23 13:06:38;;;;;;;87.17;16.07;;;;;;;;;;5005635;28;20723;-68
2022/01/23 13:10:07;;;;;;;128.03;21.63;;;;;;;;;;5007835;28;20203;-68
2022/01/23 13:12:14;;;;;;;112.07;19.10;;;;;;;;;;5001279;28;20642;-68
2022/01/23 13:14:45;;;;;;;94.43;16.80;;;;;;;;;;5009234;28;20940;-67
2022/01/23 13:20:00;;;;;;;103.37;19.07;;;;;;;;;;5003689;28;20193;-68
2022/01/23 13:30:53;;;;;;;88.90;16.57;;;;;;;;;;5003245;28;20192;-68
2022/01/23 13:33:24;;;;;;;155.53;25.57;;;;;;;;;;5005273;28;20239;-67
2022/01/23 13:35:53;;;;;;;106.67;19.00;;;;;;;;;;5003629;28;20196;-68
2022/01/23 13:38:23;;;;;;;65.10;13.17;;;;;;;;;;5006660;28;20212;-68
2022/01/23 13:41:08;;;;;;;90.57;17.67;;;;;;;;;;5000927;28;20546;-68
2022/01/23 13:51:58;;;;;;;117.43;20.27;;;;;;;;;;5005482;28;20681;-68
2022/01/23 14:00:00;;;;;;;105.33;19.20;;;;;;;;;;5013329;28;20246;-68
2022/01/23 14:02:34;;;;;;;136.53;23.07;;;;;;;;;;5003870;28;20269;-68
2022/01/23 14:05:09;;;;;;;109.87;18.80;;;;;;;;;;4998193;28;20272;-68
2022/01/23 14:07:36;;;;;;;111.33;19.60;;;;;;;;;;4998562;28;20705;-68
2022/01/23 14:10:14;;;;;;;157.77;26.37;;;;;;;;;;4998767;28;20189;-68
2022/01/23 14:12:40;;;;;;;121.60;20.93;;;;;;;;;;5005617;28;20195;-68
2022/01/23 14:15:10;;;;;;;100.10;18.00;;;;;;;;;;5006288;28;20177;-68
2022/01/23 14:17:39;;;;;;;105.17;18.80;;;;;;;;;;5003042;28;20293;-67
2022/01/23 14:20:06;;;;;;;99.07;18.10;;;;;;;;;;5008211;28;20181;-69
2022/01/23 14:22:34;;;;;;;57.60;12.33;;;;;;;;;;5000094;28;20181;-68
2022/01/23 14:25:10;;;;;;;157.30;26.27;;;;;;;;;;5000407;28;20247;-68
2022/01/23 14:27:36;;;;;;;135.47;22.30;;;;;;;;;;4998561;28;20232;-68
2022/01/23 14:30:06;;;;;;;88.87;16.30;;;;;;;;;;5003605;28;20208;-67
2022/01/23 14:32:41;;;;;;;108.40;19.37;;;;;;;;;;5004410;28;20196;-68
2022/01/23 14:35:08;;;;;;;99.77;17.40;;;;;;;;;;5013782;28;20210;-68
2022/01/23 14:37:34;;;;;;;106.50;18.43;;;;;;;;;;5007761;28;20298;-68
2022/01/23 14:40:07;;;;;;;161.93;25.67;;;;;;;;;;5005657;28;20184;-68
2022/01/23 14:42:33;;;;;;;105.40;19.30;;;;;;;;;;5010190;28;20573;-68
2022/01/23 14:45:03;;;;;;;134.20;23.03;;;;;;;;;;5009298;28;20181;-68
2022/01/23 14:47:34;;;;;;;138.07;22.77;;;;;;;;;;5002542;28;20220;-68
2022/01/23 14:50:02;;;;;;;100.23;18.50;;;;;;;;;;5006862;28;20282;-68
2022/01/23 14:52:28;;;;;;;81.77;15.13;;;;;;;;;;5008354;28;20181;-68
2022/01/23 14:54:56;;;;;;;148.20;23.60;;;;;;;;;;5009341;28;20251;-67
2022/01/23 14:57:23;;;;;;;86.83;15.60;;;;;;;;;;5007587;28;20291;-67
2022/01/23 14:59:49;;;;;;;169.20;27.83;;;;;;;;;;5005739;28;20208;-67
2022/01/23 15:02:16;;;;;;;91.03;17.67;;;;;;;;;;5005849;28;20180;-68
2022/01/23 15:04:47;;;;;;;120.53;21.10;;;;;;;;;;5003374;28;20221;-68
2022/01/23 15:07:14;;;;;;;109.40;19.40;;;;;;;;;;5007651;28;20216;-68
2022/01/23 15:09:40;;;;;;;99.10;18.13;;;;;;;;;;5010972;28;20177;-68
2022/01/23 15:12:06;;;;;;;146.30;24.87;;;;;;;;;;5003213;28;20236;-68
2022/01/23 15:14:32;;;;;;;63.13;12.83;;;;;;;;;;5012391;28;20204;-67
2022/01/23 15:16:59;;;;;;;136.70;22.10;;;;;;;;;;5005250;28;20184;-68
2022/01/23 15:19:25;;;;;;;98.67;17.93;;;;;;;;;;5012915;28;20247;-68
2022/01/23 15:21:51;;;;;;;103.23;18.17;;;;;;;;;;5000245;28;20295;-68
2022/01/23 15:24:17;;;;;;;98.43;18.00;;;;;;;;;;5005573;28;20355;-68
2022/01/23 15:26:42;;;;;;;119.33;20.20;;;;;;;;;;5010279;28;20702;-68
2022/01/23 15:29:10;;;;;;;91.47;16.70;;;;;;;;;;5009382;28;20216;-68
2022/01/23 15:31:38;;;;;;;144.07;24.07;;;;;;;;;;5006861;28;20610;-68
2022/01/23 15:34:03;;;;;;;84.13;16.17;;;;;;;;;;5008419;28;20541;-68
2022/01/23 15:36:30;;;;;;;100.60;18.00;;;;;;;;;;5007631;28;20224;-68
2022/01/23 15:38:56;;;;;;;94.70;17.07;;;;;;;;;;5010709;28;20228;-68
2022/01/23 15:41:22;;;;;;;98.53;16.80;;;;;;;;;;5005883;28;20185;-68
2022/01/23 15:43:48;;;;;;;92.70;16.47;;;;;;;;;;5010154;28;20852;-68
2022/01/23 15:46:14;;;;;;;184.73;28.90;;;;;;;;;;4998162;28;20302;-68
2022/01/23 15:48:40;;;;;;;119.53;20.70;;;;;;;;;;5004480;28;20800;-68
2022/01/23 15:51:06;;;;;;;95.10;16.83;;;;;;;;;;5005867;28;20212;-68
2022/01/23 15:53:33;;;;;;;109.87;18.57;;;;;;;;;;5004476;28;20207;-68
2022/01/23 15:55:59;;;;;;;96.93;17.80;;;;;;;;;;5007369;28;20526;-68
2022/01/23 15:58:27;;;;;;;75.27;14.20;;;;;;;;;;5002863;28;20257;-69
2022/01/23 16:00:53;;;;;;;128.20;21.33;;;;;;;;;;5006894;28;20209;-68
2022/01/23 16:03:19;;;;;;;110.67;19.00;;;;;;;;;;5004571;28;20291;-68
2022/01/23 16:05:45;;;;;;;73.47;14.00;;;;;;;;;;5001917;28;20704;-68
2022/01/23 16:08:13;;;;;;;121.27;20.30;;;;;;;;;;5011555;28;20609;-68
2022/01/23 16:10:39;;;;;;;118.57;20.00;;;;;;;;;;5002220;28;20217;-73
2022/01/23 16:13:04;;;;;;;107.23;18.57;;;;;;;;;;5009236;28;20215;-72
2022/01/23 16:15:31;;;;;;;76.73;15.67;;;;;;;;;;5001134;28;20189;-72
2022/01/23 16:17:57;;;;;;;97.60;18.13;;;;;;;;;;5006064;28;20258;-72
2022/01/23 16:20:23;;;;;;;105.13;18.50;;;;;;;;;;5005375;28;20191;-72
2022/01/23 16:22:49;;;;;;;99.00;17.43;;;;;;;;;;5011170;28;20784;-72
2022/01/23 16:25:17;;;;;;;108.67;18.73;;;;;;;;;;5008684;28;20211;-72
2022/01/23 16:27:43;;;;;;;79.77;15.37;;;;;;;;;;5009274;28;20902;-72
2022/01/23 16:30:10;;;;;;;63.63;12.60;;;;;;;;;;5006397;28;20196;-72
2022/01/23 16:32:36;;;;;;;96.07;17.23;;;;;;;;;;5007409;28;20185;-72
2022/01/23 16:35:03;;;;;;;116.20;20.30;;;;;;;;;;5007616;28;20180;-72
2022/01/23 16:37:29;;;;;;;119.30;20.33;;;;;;;;;;5004364;28;20732;-72
2022/01/23 16:39:55;;;;;;;117.37;19.87;;;;;;;;;;5005659;28;20260;-72
2022/01/23 16:42:21;;;;;;;114.80;19.50;;;;;;;;;;5005149;28;20192;-72
2022/01/23 16:44:47;;;;;;;101.27;17.43;;;;;;;;;;5005739;28;20207;-72
2022/01/23 16:47:13;;;;;;;106.33;18.80;;;;;;;;;;5009746;28;20292;-73
2022/01/23 16:49:40;;;;;;;112.27;18.80;;;;;;;;;;4999794;28;20648;-72
2022/01/23 16:52:12;;;;;;;78.37;15.47;;;;;;;;;;5006039;28;20188;-72
2022/01/23 16:54:38;;;;;;;80.73;15.47;;;;;;;;;;5006841;28;20184;-72
2022/01/23 16:57:04;;;;;;;140.60;22.83;;;;;;;;;;5003386;28;20191;-73
2022/01/23 16:59:30;;;;;;;136.73;22.43;;;;;;;;;;5006695;28;20262;-73
2022/01/23 17:01:56;;;;;;;141.83;22.83;;;;;;;;;;5003072;28;20260;-72
2022/01/23 17:04:22;;;;;;;77.13;14.07;;;;;;;;;;5006951;28;20829;-72
2022/01/23 17:06:48;;;;;;;108.83;18.27;;;;;;;;;;5002995;28;20220;-73
2022/01/23 17:09:14;;;;;;;130.37;21.13;;;;;;;;;;5004374;28;20562;-72
2022/01/23 17:11:41;;;;;;;57.43;12.00;;;;;;;;;;5010673;28;20184;-72
2022/01/23 17:14:07;;;;;;;90.50;17.23;;;;;;;;;;5020128;28;20193;-72
2022/01/23 17:16:33;;;;;;;113.10;19.80;;;;;;;;;;5002733;28;21205;-72
2022/01/23 17:18:59;;;;;;;108.20;18.80;;;;;;;;;;4999488;28;20311;-73
2022/01/23 17:21:25;;;;;;;83.00;15.40;;;;;;;;;;5006707;28;20203;-73
2022/01/23 17:23:51;;;;;;;77.17;14.47;;;;;;;;;;5006361;28;20196;-72
2022/01/23 17:26:18;;;;;;;121.17;21.07;;;;;;;;;;4999283;28;20188;-72
2022/01/23 17:28:43;;;;;;;95.17;17.27;;;;;;;;;;5005031;28;20216;-75
2022/01/23 17:31:09;;;;;;;90.33;16.63;;;;;;;;;;5004928;28;20199;-76